Time;durP1;ratioP1;P1;durP2;ratioP2;P2;SDS_P1;SDS_P2;PMS_P1;PMS_P2;Temp;Humidity;BMP_temperature;BMP_pressure;BME280_temperature;BME280_humidity;BME280_pressure;Samples;Min_cycle;Max_cycle;Signal;HPM_P1;HPM_P2
2022/11/07 15:28:51;;;;;;;4.50;2.25;;;15.60;64.10;;;;;;5284114;23;20096;-70
2022/11/07 15:31:26;;;;;;;7.43;2.83;;;15.40;63.80;;;;;;5043657;28;20025;-70
2022/11/07 15:33:54;;;;;;;20.15;3.35;;;15.30;65.10;;;;;;5029295;28;20022;-70
2022/11/07 15:36:21;;;;;;;14.13;2.33;;;15.30;65.20;;;;;;5025352;28;20030;-70
2022/11/07 15:38:48;;;;;;;13.32;3.17;;;15.40;65.20;;;;;;5026142;28;20029;-71
2022/11/07 15:41:14;;;;;;;7.47;2.13;;;15.40;64.40;;;;;;5028203;28;20377;-72
2022/11/07 15:43:40;;;;;;;18.27;2.67;;;15.30;64.90;;;;;;5032801;28;20014;-71
2022/11/07 15:46:29;;;;;;;7.43;2.42;;;15.40;64.90;;;;;;5025049;28;20022;-71
2022/11/07 15:48:55;;;;;;;3.83;2.30;;;15.40;65.50;;;;;;5024607;28;20018;-72
2022/11/07 15:51:21;;;;;;;5.63;1.42;;;15.50;64.80;;;;;;5040057;28;20021;-71
2022/11/07 15:53:47;;;;;;;2.45;1.67;;;15.40;64.80;;;;;;5023917;28;20022;-71
2022/11/07 15:56:15;;;;;;;4.30;1.60;;;15.50;64.70;;;;;;5025026;28;20018;-71
2022/11/07 15:58:41;;;;;;;2.45;1.73;;;15.40;64.70;;;;;;5024921;28;20021;-72
2022/11/07 16:01:08;;;;;;;4.40;1.42;;;15.40;64.70;;;;;;5024973;28;20088;-72
2022/11/07 16:03:33;;;;;;;5.68;1.73;;;15.40;64.70;;;;;;5024883;28;20038;-72
2022/11/07 16:06:00;;;;;;;5.00;1.30;;;15.40;64.70;;;;;;5024822;28;20022;-72
2022/11/07 16:08:28;;;;;;;3.45;1.75;;;15.40;64.70;;;;;;5024782;28;20025;-72
2022/11/07 16:11:06;;;;;;;5.50;2.08;;;15.40;64.80;;;;;;5024798;28;20049;-72
2022/11/07 16:13:32;;;;;;;6.57;1.70;;;15.40;64.70;;;;;;5023850;28;20044;-72
2022/11/07 16:16:00;;;;;;;3.38;1.85;;;15.40;64.70;;;;;;5024668;28;20260;-72
2022/11/07 16:18:26;;;;;;;2.83;1.65;;;15.40;64.70;;;;;;5024573;28;20186;-72
2022/11/07 16:20:52;;;;;;;3.45;1.40;;;15.40;64.70;;;;;;5024620;28;20351;-72
2022/11/07 16:23:18;;;;;;;2.90;1.60;;;15.50;64.70;;;;;;5024569;28;20017;-71
2022/11/07 16:25:48;;;;;;;5.30;1.73;;;15.40;64.60;;;;;;5024447;28;20021;-71
2022/11/07 16:28:32;;;;;;;2.65;1.48;;;15.40;64.60;;;;;;5024262;28;20041;-71
2022/11/07 16:30:59;;;;;;;11.13;1.75;;;15.40;64.60;;;;;;5024430;28;20056;-72
2022/11/07 16:33:26;;;;;;;1.30;1.17;;;15.40;64.70;;;;;;5024389;28;20021;-72
2022/11/07 16:35:55;;;;;;;2.08;1.38;;;15.40;64.60;;;;;;5039655;28;20186;-71
2022/11/07 16:38:23;;;;;;;3.30;1.70;;;15.40;64.60;;;;;;5024231;28;20021;-71
2022/11/07 16:40:49;;;;;;;1.80;1.40;;;15.40;64.60;;;;;;5024258;28;20025;-72
2022/11/07 16:43:16;;;;;;;6.22;1.58;;;15.40;64.60;;;;;;5024238;28;20245;-72
2022/11/07 16:45:54;;;;;;;1.48;1.35;;;15.40;64.50;;;;;;5039454;28;20021;-71
2022/11/07 16:48:24;;;;;;;3.92;1.58;;;15.40;64.50;;;;;;5024202;28;20025;-72
2022/11/07 16:50:51;;;;;;;3.67;1.50;;;15.40;64.50;;;;;;5024166;28;20026;-72
2022/11/07 16:53:18;;;;;;;5.00;1.83;;;15.40;64.60;;;;;;5039412;28;20060;-73
2022/11/07 16:55:52;;;;;;;1.95;1.20;;;15.40;64.50;;;;;;5024012;28;20375;-72
2022/11/07 16:58:30;;;;;;;2.78;1.60;;;15.40;64.40;;;;;;5023943;28;20085;-71
2022/11/07 17:01:03;;;;;;;3.60;1.50;;;15.40;64.40;;;;;;5023978;28;20028;-72
2022/11/07 17:03:30;;;;;;;4.90;2.03;;;15.40;64.40;;;;;;5023998;28;20014;-72
2022/11/07 17:05:59;;;;;;;3.47;1.30;;;15.30;64.50;;;;;;5023899;28;20077;-72
2022/11/07 17:08:27;;;;;;;;;;;15.40;64.50;;;;;;5024309;28;20079;-71
2022/11/07 17:10:53;;;;;;;1.95;1.25;;;15.40;65.10;;;;;;5023843;28;19908;-71
2022/11/07 17:13:21;;;;;;;2.63;1.50;;;15.40;64.50;;;;;;5023802;28;20021;-71
2022/11/07 17:15:47;;;;;;;1.70;1.45;;;15.40;64.50;;;;;;5039107;28;20022;-72
2022/11/07 17:18:21;;;;;;;3.95;1.42;;;15.40;64.50;;;;;;5023687;28;20026;-72
2022/11/07 17:20:47;;;;;;;3.72;1.25;;;15.40;64.50;;;;;;5023804;28;20300;-72
2022/11/07 17:23:14;;;;;;;1.55;1.23;;;15.30;64.40;;;;;;5023721;28;20086;-71
2022/11/07 17:25:45;;;;;;;3.17;1.30;;;15.40;64.40;;;;;;5043717;28;20093;-71
2022/11/07 17:28:11;;;;;;;4.47;1.35;;;15.40;64.40;;;;;;5030114;28;20398;-70
2022/11/07 17:30:37;;;;;;;2.00;1.40;;;15.30;64.30;;;;;;5030156;28;20026;-71
2022/11/07 17:33:03;;;;;;;2.30;1.30;;;15.30;64.40;;;;;;5030126;28;20037;-71
2022/11/07 17:35:31;;;;;;;2.53;1.52;;;15.30;64.50;;;;;;5045488;28;20029;-71
2022/11/07 17:37:56;;;;;;;4.93;1.55;;;15.30;64.50;;;;;;5030069;28;20014;-70
2022/11/07 17:40:26;;;;;;;2.58;1.60;;;15.30;64.40;;;;;;5030067;28;20040;-71
2022/11/07 17:42:52;;;;;;;1.95;1.40;;;15.30;64.40;;;;;;5030079;28;20021;-71
2022/11/07 17:45:17;;;;;;;1.55;1.00;;;15.30;64.40;;;;;;5030074;28;20339;-71
2022/11/07 17:47:43;;;;;;;1.33;1.13;;;15.30;64.40;;;;;;5030026;28;20018;-71
2022/11/07 17:50:14;;;;;;;2.20;1.30;;;15.30;64.40;;;;;;5045400;28;20089;-71
2022/11/07 17:52:40;;;;;;;2.30;1.20;;;15.30;64.40;;;;;;5030040;28;20037;-72
2022/11/07 17:55:07;;;;;;;1.60;1.10;;;15.30;64.40;;;;;;5045282;28;20017;-71
2022/11/07 17:57:32;;;;;;;1.55;0.93;;;15.30;64.40;;;;;;5029800;28;20024;-71
2022/11/07 17:59:58;;;;;;;2.47;1.23;;;15.30;64.50;;;;;;5029933;28;20018;-71
2022/11/07 18:02:24;;;;;;;4.88;1.30;;;15.30;64.50;;;;;;5029900;28;20080;-71
2022/11/07 18:04:50;;;;;;;1.58;1.10;;;15.30;64.40;;;;;;5045286;28;20064;-72
2022/11/07 18:07:16;;;;;;;1.63;1.42;;;15.30;64.40;;;;;;5029802;28;20041;-72
2022/11/07 18:09:42;;;;;;;1.30;1.20;;;15.20;64.50;;;;;;5045222;28;20064;-72
2022/11/07 18:12:09;;;;;;;2.53;1.13;;;15.20;64.60;;;;;;5045218;28;20297;-71
2022/11/07 18:14:35;;;;;;;0.90;0.90;;;15.30;64.50;;;;;;5029813;28;20063;-72
2022/11/07 18:17:01;;;;;;;2.38;1.63;;;15.30;64.50;;;;;;5029788;28;20018;-72
2022/11/07 18:19:27;;;;;;;7.22;1.45;;;15.20;64.40;;;;;;5029720;28;20037;-71
2022/11/07 18:21:53;;;;;;;3.55;1.67;;;15.30;64.50;;;;;;5045103;28;20335;-72
2022/11/07 18:24:19;;;;;;;1.55;1.30;;;15.30;64.50;;;;;;5029675;28;20085;-71
2022/11/07 18:26:47;;;;;;;4.65;1.60;;;15.20;64.50;;;;;;5045038;28;20312;-71
2022/11/07 18:29:13;;;;;;;1.40;1.30;;;15.20;64.50;;;;;;5029543;28;20060;-72
2022/11/07 18:31:40;;;;;;;2.42;1.17;;;15.20;64.40;;;;;;5044987;28;20034;-72
2022/11/07 18:34:10;;;;;;;2.22;1.40;;;15.20;64.60;;;;;;5029646;28;20052;-72
2022/11/07 18:36:37;;;;;;;1.40;1.23;;;15.20;64.50;;;;;;5042446;28;20186;-72
2022/11/07 18:39:21;;;;;;;1.73;1.25;;;15.20;64.50;;;;;;5041719;28;20359;-72
2022/11/07 18:41:48;;;;;;;2.78;1.30;;;15.20;64.50;;;;;;5026438;28;20085;-71
2022/11/07 18:44:14;;;;;;;1.38;1.27;;;15.20;64.50;;;;;;5041744;28;20186;-71
2022/11/07 18:46:40;;;;;;;1.73;1.25;;;15.20;64.50;;;;;;5041687;28;20009;-71
2022/11/07 18:49:06;;;;;;;1.15;1.05;;;15.20;64.50;;;;;;5026316;28;20028;-72
2022/11/07 18:51:33;;;;;;;1.92;1.27;;;15.20;64.50;;;;;;5041588;28;20048;-71
2022/11/07 18:54:00;;;;;;;2.47;1.40;;;15.20;64.50;;;;;;5026242;28;20022;-71
2022/11/07 18:56:26;;;;;;;1.83;1.65;;;15.20;64.60;;;;;;5026178;28;20013;-71
2022/11/07 18:58:53;;;;;;;1.92;1.58;;;15.20;64.60;;;;;;5041416;28;20026;-72
2022/11/07 19:01:26;;;;;;;1.92;1.52;;;15.20;65.20;;;;;;5041452;28;20014;-71
2022/11/07 19:03:56;;;;;;;1.17;1.08;;;15.20;64.50;;;;;;5026092;28;20010;-71
2022/11/07 19:06:24;;;;;;;1.73;1.40;;;15.20;64.50;;;;;;5026241;28;20040;-72
2022/11/07 19:08:50;;;;;;;1.60;1.38;;;15.20;64.50;;;;;;5025928;28;20026;-72
2022/11/07 19:11:27;;;;;;;2.53;1.40;;;15.20;64.50;;;;;;5025937;28;20022;-72
2022/11/07 19:13:54;;;;;;;1.45;1.30;;;15.20;64.50;;;;;;5041239;28;20024;-71
2022/11/07 19:16:21;;;;;;;3.42;1.38;;;15.20;64.60;;;;;;5025843;28;20025;-72
2022/11/07 19:18:47;;;;;;;5.53;1.67;;;15.20;64.50;;;;;;5041024;28;20049;-71
2022/11/07 19:21:14;;;;;;;1.92;1.50;;;15.20;64.60;;;;;;5025736;28;20034;-72
2022/11/07 19:23:40;;;;;;;2.13;1.33;;;15.20;64.60;;;;;;5041011;28;20014;-72
2022/11/07 19:26:07;;;;;;;1.63;1.50;;;15.20;64.60;;;;;;5025553;28;20068;-72
2022/11/07 19:28:35;;;;;;;1.63;1.52;;;15.20;64.60;;;;;;5040804;28;20232;-71
2022/11/07 19:31:03;;;;;;;2.10;1.42;;;15.20;64.60;;;;;;5040883;28;20033;-72
2022/11/07 19:33:28;;;;;;;1.75;1.50;;;15.10;64.60;;;;;;5040855;28;20018;-71
2022/11/07 19:35:59;;;;;;;1.40;1.20;;;15.10;64.60;;;;;;5040771;28;20029;-72
2022/11/07 19:38:26;;;;;;;1.27;1.17;;;15.20;64.60;;;;;;5025326;28;20053;-72
2022/11/07 19:40:51;;;;;;;2.65;1.70;;;15.10;64.60;;;;;;5025323;28;20022;-72
2022/11/07 19:43:17;;;;;;;1.27;1.17;;;15.10;64.70;;;;;;5025357;28;20042;-72
2022/11/07 19:45:43;;;;;;;1.40;1.30;;;15.10;64.70;;;;;;5025266;28;20018;-71
2022/11/07 19:48:09;;;;;;;2.10;1.70;;;15.10;64.70;;;;;;5025052;28;20018;-72
2022/11/07 19:50:37;;;;;;;1.83;1.33;;;15.10;64.60;;;;;;5025161;28;20076;-72
2022/11/07 19:53:04;;;;;;;1.15;1.05;;;15.10;64.60;;;;;;5025143;28;20089;-71
2022/11/07 19:55:30;;;;;;;1.50;1.40;;;15.10;64.60;;;;;;5025094;28;20041;-71
2022/11/07 19:57:55;;;;;;;1.80;1.42;;;15.10;64.70;;;;;;5040289;28;20017;-71
2022/11/07 20:00:24;;;;;;;1.42;1.30;;;15.10;64.70;;;;;;5024956;28;20041;-72
2022/11/07 20:02:50;;;;;;;;;;;15.10;64.70;;;;;;5025363;28;20060;-71
2022/11/07 20:05:22;;;;;;;3.20;1.50;;;15.10;64.70;;;;;;5024888;28;19905;-72
2022/11/07 20:07:50;;;;;;;2.22;1.10;;;15.10;64.60;;;;;;5040185;28;20022;-71
2022/11/07 20:10:16;;;;;;;1.15;1.05;;;15.10;64.60;;;;;;5024784;28;20025;-71
2022/11/07 20:12:41;;;;;;;1.02;1.02;;;15.10;64.60;;;;;;5024746;28;20024;-71
2022/11/07 20:15:08;;;;;;;1.50;1.10;;;15.10;64.60;;;;;;5024717;28;20022;-72
2022/11/07 20:17:34;;;;;;;2.03;1.50;;;15.10;64.70;;;;;;5024551;28;20028;-71
2022/11/07 20:19:59;;;;;;;2.47;1.33;;;15.10;64.80;;;;;;5024605;28;20042;-71
2022/11/07 20:22:25;;;;;;;2.00;1.58;;;15.10;64.80;;;;;;5024569;28;20014;-72
2022/11/07 20:24:51;;;;;;;1.30;1.13;;;15.10;64.70;;;;;;5024545;28;20201;-71
2022/11/07 20:27:16;;;;;;;1.42;1.33;;;15.10;64.70;;;;;;5024279;28;20325;-71
2022/11/07 20:29:42;;;;;;;2.92;1.10;;;15.10;65.30;;;;;;5024487;28;20018;-71
2022/11/07 20:32:10;;;;;;;3.15;1.30;;;15.10;64.70;;;;;;5024437;28;20109;-72
2022/11/07 20:34:35;;;;;;;1.90;1.73;;;15.10;64.70;;;;;;5024424;28;20347;-71
2022/11/07 20:37:01;;;;;;;1.85;1.27;;;15.10;64.60;;;;;;5024316;28;20022;-71
2022/11/07 20:39:28;;;;;;;2.35;1.58;;;15.10;64.70;;;;;;5024239;28;20292;-71
2022/11/07 20:41:54;;;;;;;1.55;1.27;;;15.10;64.70;;;;;;5024261;28;20033;-71
2022/11/07 20:44:21;;;;;;;2.15;1.50;;;15.10;64.70;;;;;;5024228;28;20018;-71
2022/11/07 20:46:48;;;;;;;1.75;1.27;;;15.10;64.70;;;;;;5039478;28;20014;-71
2022/11/07 20:49:15;;;;;;;3.92;1.20;;;15.10;64.70;;;;;;5024041;28;20026;-72
2022/11/07 20:51:42;;;;;;;2.30;1.53;;;15.10;64.70;;;;;;5024186;28;20022;-72
2022/11/07 20:54:15;;;;;;;1.40;1.30;;;15.10;64.70;;;;;;5024065;28;20029;-71
2022/11/07 20:56:41;;;;;;;1.67;1.20;;;15.10;64.70;;;;;;5024046;28;20113;-71
2022/11/07 20:59:08;;;;;;;2.17;1.40;;;15.10;64.70;;;;;;5038695;28;20018;-72
2022/11/07 21:01:35;;;;;;;1.40;1.30;;;15.10;64.70;;;;;;5023939;28;20245;-72
2022/11/07 21:04:09;;;;;;;3.17;1.75;;;15.10;64.60;;;;;;5023946;28;20014;-72
2022/11/07 21:06:36;;;;;;;1.45;1.35;;;15.10;64.70;;;;;;5023946;28;20059;-72
2022/11/07 21:09:03;;;;;;;1.65;1.27;;;15.10;64.60;;;;;;5023924;28;20029;-71
2022/11/07 21:11:29;;;;;;;1.70;1.35;;;15.10;64.60;;;;;;5023885;28;20040;-72
2022/11/07 21:13:55;;;;;;;4.00;1.75;;;15.10;64.60;;;;;;5023841;28;20021;-71
2022/11/07 21:16:22;;;;;;;1.40;1.30;;;15.10;64.60;;;;;;5023775;28;20101;-72
2022/11/07 21:18:49;;;;;;;1.35;1.25;;;15.00;64.60;;;;;;5023717;28;20049;-71
2022/11/07 21:21:19;;;;;;;2.58;1.52;;;15.00;64.60;;;;;;5023726;28;20018;-71
2022/11/07 21:23:46;;;;;;;1.38;1.17;;;15.00;64.60;;;;;;5038984;28;20045;-71
2022/11/07 21:26:20;;;;;;;1.75;1.35;;;15.00;64.60;;;;;;5039034;28;20324;-71
2022/11/07 21:28:46;;;;;;;1.70;1.50;;;15.00;64.70;;;;;;5023533;28;20049;-71
2022/11/07 21:31:16;;;;;;;1.38;1.27;;;15.00;64.70;;;;;;5023639;28;20060;-71
2022/11/07 21:33:42;;;;;;;2.85;1.77;;;15.00;64.70;;;;;;5023662;28;20037;-71
2022/11/07 21:36:15;;;;;;;1.20;1.10;;;15.00;64.80;;;;;;5023566;28;20085;-71
2022/11/07 21:38:41;;;;;;;1.58;1.10;;;15.00;64.70;;;;;;5038873;28;20096;-71
2022/11/07 21:41:08;;;;;;;4.93;1.33;;;15.00;64.70;;;;;;5038892;28;20018;-71
2022/11/07 21:43:34;;;;;;;1.40;1.20;;;15.00;64.70;;;;;;5038821;28;20010;-71
2022/11/07 21:46:11;;;;;;;1.42;1.10;;;15.00;65.40;;;;;;5038831;28;20022;-71
2022/11/07 21:48:38;;;;;;;1.55;1.00;;;15.00;64.70;;;;;;5023552;28;20258;-71
2022/11/07 21:51:09;;;;;;;1.90;1.40;;;15.00;64.80;;;;;;5023486;28;20022;-72
2022/11/07 21:53:35;;;;;;;3.00;1.50;;;15.00;64.70;;;;;;5023472;28;20020;-72
2022/11/07 21:56:01;;;;;;;2.20;1.48;;;15.00;64.70;;;;;;5038737;28;20092;-72
2022/11/07 21:58:27;;;;;;;2.42;1.60;;;15.00;64.70;;;;;;5038600;28;20030;-72
2022/11/07 22:00:53;;;;;;;2.47;1.30;;;15.00;64.70;;;;;;5023361;28;20018;-71
2022/11/07 22:03:19;;;;;;;1.17;1.08;;;15.00;64.80;;;;;;5023333;28;20014;-71
2022/11/07 22:05:45;;;;;;;1.90;1.70;;;15.00;64.80;;;;;;5023295;28;20036;-72
2022/11/07 22:08:11;;;;;;;2.00;1.58;;;15.00;64.70;;;;;;5038592;28;20024;-72
2022/11/07 22:10:36;;;;;;;2.05;1.13;;;15.00;64.70;;;;;;5023210;28;20042;-72
2022/11/07 22:13:04;;;;;;;1.20;1.10;;;15.00;64.70;;;;;;5026223;28;20238;-71
2022/11/07 22:15:30;;;;;;;1.33;0.85;;;14.90;64.70;;;;;;5027010;28;20022;-72
2022/11/07 22:17:55;;;;;;;1.48;1.20;;;15.00;64.80;;;;;;5026804;28;20026;-72
2022/11/07 22:20:21;;;;;;;1.42;1.30;;;15.00;64.70;;;;;;5026866;28;20091;-72
2022/11/07 22:22:47;;;;;;;1.60;1.30;;;15.00;64.70;;;;;;5042216;28;20072;-72
2022/11/07 22:25:13;;;;;;;1.80;1.23;;;15.00;64.80;;;;;;5026783;28;20025;-72
2022/11/07 22:27:38;;;;;;;1.27;1.17;;;15.00;64.70;;;;;;5026517;28;20042;-72
2022/11/07 22:30:04;;;;;;;2.30;1.10;;;15.00;64.70;;;;;;5042063;28;20214;-72
2022/11/07 22:32:30;;;;;;;1.98;1.30;;;15.00;64.70;;;;;;5041940;28;20014;-72
2022/11/07 22:34:56;;;;;;;1.58;1.42;;;15.00;64.80;;;;;;5026608;28;20081;-72
2022/11/07 22:37:22;;;;;;;3.72;1.48;;;15.00;64.80;;;;;;5026564;28;20009;-72
2022/11/07 22:39:47;;;;;;;1.95;1.73;;;14.90;64.80;;;;;;5026537;28;20022;-72
2022/11/07 22:42:13;;;;;;;2.70;1.30;;;14.90;64.80;;;;;;5026476;28;20017;-72
2022/11/07 22:44:39;;;;;;;1.95;1.25;;;14.90;64.70;;;;;;5026428;28;20264;-72
2022/11/07 22:47:05;;;;;;;2.40;1.45;;;14.90;64.80;;;;;;5026336;28;20021;-72
2022/11/07 22:49:30;;;;;;;1.60;1.25;;;15.00;64.70;;;;;;5026358;28;20017;-72
2022/11/07 22:51:56;;;;;;;1.23;1.10;;;15.00;64.80;;;;;;5026299;28;20191;-71
2022/11/07 22:54:22;;;;;;;1.75;1.52;;;15.00;64.70;;;;;;5026234;28;20213;-72
2022/11/07 22:56:47;;;;;;;1.60;1.27;;;14.90;64.70;;;;;;5026240;28;20053;-72
2022/11/07 22:59:13;;;;;;;2.05;1.45;;;14.90;64.70;;;;;;5041450;28;20025;-72
2022/11/07 23:01:40;;;;;;;1.40;1.30;;;15.00;64.70;;;;;;5026098;28;20014;-72
2022/11/07 23:04:09;;;;;;;1.88;1.27;;;15.00;64.60;;;;;;5026087;28;20014;-72
2022/11/07 23:06:34;;;;;;;1.90;1.52;;;15.00;64.70;;;;;;5026035;28;20014;-72
2022/11/07 23:09:00;;;;;;;1.33;1.10;;;14.90;64.70;;;;;;5025949;28;20022;-72
2022/11/07 23:11:32;;;;;;;1.20;1.10;;;14.90;64.80;;;;;;5041304;28;20022;-72
2022/11/07 23:14:01;;;;;;;1.60;1.25;;;14.90;64.70;;;;;;5025948;28;20049;-72
2022/11/07 23:16:51;;;;;;;1.88;1.50;;;14.90;64.70;;;;;;5025912;28;20022;-72
2022/11/07 23:19:19;;;;;;;1.10;1.00;;;14.90;64.80;;;;;;5025532;28;20029;-72
2022/11/07 23:21:45;;;;;;;1.45;1.35;;;14.90;64.80;;;;;;5041094;28;20132;-72
2022/11/07 23:24:11;;;;;;;1.60;1.50;;;14.90;64.90;;;;;;5025167;28;20233;-72
2022/11/07 23:26:36;;;;;;;1.58;1.35;;;14.90;64.70;;;;;;5025637;28;20025;-71
2022/11/07 23:29:20;;;;;;;1.23;1.00;;;14.90;64.80;;;;;;5025405;28;20054;-73
2022/11/07 23:31:48;;;;;;;1.30;1.20;;;14.90;64.80;;;;;;5040926;28;20032;-71
2022/11/07 23:34:14;;;;;;;1.42;1.10;;;14.90;64.80;;;;;;5025575;28;20022;-73
2022/11/07 23:36:43;;;;;;;1.55;1.30;;;14.90;64.80;;;;;;5025427;28;20386;-72
2022/11/07 23:39:13;;;;;;;2.17;1.35;;;14.90;64.80;;;;;;5025349;28;20022;-72
2022/11/07 23:41:39;;;;;;;2.08;1.20;;;14.90;64.70;;;;;;5025400;28;20009;-71
2022/11/07 23:44:05;;;;;;;2.63;2.20;;;14.90;64.70;;;;;;5025317;28;20055;-72
2022/11/07 23:51:59;;;;;;;1.30;1.20;;;14.90;64.70;;;;;;5025196;28;20017;-72
2022/11/07 23:57:09;;;;;;;2.78;1.48;;;14.90;64.70;;;;;;5025100;28;20037;-71
